Emmonak Airport Emmonak US
ICAO: PAEM
IATA:
Category: Medium
Scheduled Services:

Elevation: 13 ft
TransAlt. 18000 ft.

Airport Communications:
AWOS 3:135.35
ANCHORAGE CNTR:132.5
CTAF:122.9
KENAI RDO:122.55
TWEB:177.8

PAEM Zoom In..

If you have problems with the map follow the link
https://www.worldairports.se/pages/airport.php?
ICAO=PAEM

Runways:

(A) RW 16 length 4601 ft width 100 ft
---- / hdg 163

(B) RW 34 length 4601 ft width 100 ft
---- / hdg 343

Location; PAEM
Day. 22 / Time. 01.52 Zulu
* Altimeter: 29.59
* Temperature: 02° c. 35.6°f.
* Wind from: 020° Speed 07 kn.
Dewpoint: 00° c.
Visibility: 10 Statute Miles.
Clouds: Overcast 4400 ft.

PAEM 220152Z 02007KT 10SM OVC044 02/00 A2959


Wind From 020°
Speed 07 kn.

 
 
jpsmedia worldairports.se 2019   terms of use